Terminal Aerodrome Forecast
Issued by NWS

Current Version | Previous Version | Text Only | Print | Product List | Glossary On
Versions: 1 2 3 4 5 6 7 8 9 10 11 12 13 14
000
FTUS41 KLWX 281700
TAFMTN
TAF
KMTN 281725Z 2818/2918 29010G18KT P6SM BKN050
     FM282100 28010KT P6SM FEW050 SCT100
     FM282300 29005KT P6SM SCT050 BKN100
     FM290100 VRB03KT P6SM BKN100
     FM291400 14007KT P6SM BKN130=

USA.gov is the U.S. government's official web portal to all federal, state and local government web resources and services.